Time;durP1;ratioP1;P1;durP2;ratioP2;P2;SDS_P1;SDS_P2;PMS_P1;PMS_P2;Temp;Humidity;BMP_temperature;BMP_pressure;BME280_temperature;BME280_humidity;BME280_pressure;Samples;Min_cycle;Max_cycle;Signal;HPM_P1;HPM_P2
2022/03/14 00:00:58;;;;;;;;;7.00;7.00;;;;;8.20;78.38;101220.56;5070236;28;45455;-78
2022/03/14 00:03:25;;;;;;;;;6.00;6.00;;;;;8.20;78.64;101221.44;5066885;28;47055;-79
2022/03/14 00:05:51;;;;;;;;;6.50;5.75;;;;;8.19;78.45;101210.88;5060307;28;45418;-79
2022/03/14 00:08:18;;;;;;;;;5.25;3.75;;;;;8.17;78.44;101215.22;5068159;28;45482;-78
2022/03/14 00:10:45;;;;;;;;;6.25;6.00;;;;;8.28;77.62;101225.16;5073532;28;45180;-79
2022/03/14 00:13:11;;;;;;;;;4.75;4.25;;;;;8.29;77.18;101237.41;5057351;28;47428;-79
2022/03/14 00:15:40;;;;;;;;;7.75;7.75;;;;;8.37;77.58;101247.22;5077474;28;45436;-78
2022/03/14 00:18:07;;;;;;;;;6.50;3.75;;;;;8.35;77.12;101247.19;5072164;28;45428;-77
2022/03/14 00:20:32;;;;;;;;;7.00;4.50;;;;;8.41;76.44;101249.97;5074723;28;45353;-78
2022/03/14 00:22:59;;;;;;;;;3.00;3.00;;;;;8.45;77.10;101261.44;5070958;28;45816;-79
2022/03/14 00:25:26;;;;;;;;;4.00;3.00;;;;;8.42;76.32;101256.13;5072260;28;45377;-78
2022/03/14 00:27:53;;;;;;;;;8.75;6.75;;;;;8.39;76.81;101251.69;5072912;28;45293;-78
2022/03/14 00:30:18;;;;;;;;;5.25;3.00;;;;;8.56;75.77;101276.63;5074714;28;45257;-78
2022/03/14 00:32:44;;;;;;;;;8.25;4.50;;;;;8.56;75.52;101284.50;5067835;28;45947;-78
2022/03/14 00:35:10;;;;;;;;;2.75;2.75;;;;;8.54;75.17;101288.78;5067867;28;45508;-78
2022/03/14 00:37:36;;;;;;;;;6.75;6.00;;;;;8.57;75.19;101306.38;5075113;28;45434;-78
2022/03/14 00:40:06;;;;;;;;;3.00;3.00;;;;;8.51;75.24;101293.97;5084638;27;45698;-78
2022/03/14 00:42:31;;;;;;;;;6.50;5.50;;;;;8.52;75.65;101308.88;5074925;28;46389;-78
2022/03/14 00:44:56;;;;;;;;;3.25;3.25;;;;;8.39;75.24;101274.44;5076843;28;45168;-78
2022/03/14 00:47:22;;;;;;;;;6.25;6.00;;;;;8.63;74.69;101313.50;5070263;28;45207;-79
2022/03/14 00:49:48;;;;;;;;;6.00;3.00;;;;;8.63;75.03;101316.13;5071339;28;45424;-78
2022/03/14 00:52:16;;;;;;;;;5.75;4.25;;;;;8.63;74.39;101316.13;5073336;28;46301;-77
2022/03/14 00:54:42;;;;;;;;;6.75;2.00;;;;;8.67;74.23;101324.16;5073730;28;45428;-77
2022/03/14 00:57:07;;;;;;;;;3.50;2.00;;;;;8.57;73.76;101307.28;5073244;28;45499;-78
2022/03/14 00:59:34;;;;;;;;;1.50;1.50;;;;;8.59;74.46;101314.31;5077022;28;45172;-78
2022/03/14 01:02:00;;;;;;;;;1.00;1.00;;;;;8.66;74.16;101340.75;5074176;28;46190;-78
2022/03/14 01:04:27;;;;;;;;;3.50;2.75;;;;;8.56;74.14;101325.59;5074013;28;45380;-78
2022/03/14 01:06:53;;;;;;;;;3.25;2.75;;;;;8.44;74.33;101320.03;5076524;28;45470;-79
2022/03/14 01:09:19;;;;;;;;;5.50;2.50;;;;;8.64;74.46;101355.56;5074976;28;45477;-78
2022/03/14 01:11:44;;;;;;;;;1.25;1.25;;;;;8.60;74.00;101339.72;5073387;28;46086;-78
2022/03/14 01:14:11;;;;;;;;;3.25;3.25;;;;;8.62;73.62;101344.13;5078121;28;45341;-79
2022/03/14 01:16:37;;;;;;;;;5.50;3.25;;;;;8.68;73.82;101360.06;5059995;28;45346;-79
2022/03/14 01:19:04;;;;;;;;;3.75;3.00;;;;;8.67;73.87;101360.91;5068460;28;45156;-77
2022/03/14 01:21:30;;;;;;;;;3.25;2.25;;;;;8.60;73.86;101348.47;5078213;28;47455;-79
2022/03/14 01:23:56;;;;;;;;;2.25;2.25;;;;;8.76;73.80;101379.53;5071885;28;45356;-78
2022/03/14 01:26:22;;;;;;;;;1.00;1.00;;;;;8.78;73.62;101390.06;5078123;28;45306;-78
2022/03/14 01:28:48;;;;;;;;;2.00;2.00;;;;;8.84;73.74;101390.19;5056552;28;45608;-78
2022/03/14 01:31:14;;;;;;;;;4.00;3.25;;;;;8.81;73.61;101380.50;5079002;28;46512;-78
2022/03/14 01:33:39;;;;;;;;;4.00;2.50;;;;;8.73;72.29;101375.91;5070408;28;45479;-78
2022/03/14 01:36:05;;;;;;;;;2.00;2.00;;;;;8.84;73.34;101395.47;5078092;28;45540;-78
2022/03/14 01:38:30;;;;;;;;;1.25;1.25;;;;;8.84;72.70;101408.59;5077894;28;45410;-78
2022/03/14 01:40:55;;;;;;;;;1.75;1.75;;;;;8.83;72.99;101404.19;5066328;28;46001;-78
2022/03/14 01:43:24;;;;;;;;;5.00;3.25;;;;;8.83;72.25;101402.44;5068308;28;45542;-79
2022/03/14 01:45:50;;;;;;;;;4.00;4.00;;;;;8.82;72.97;101402.41;5073073;28;45289;-77
2022/03/14 01:48:15;;;;;;;;;3.00;1.75;;;;;8.88;73.08;101413.09;5076057;28;45541;-78
2022/03/14 01:50:41;;;;;;;;;3.50;1.00;;;;;8.90;72.75;101405.25;5068934;28;47441;-79
2022/03/14 01:53:07;;;;;;;;;2.00;2.00;;;;;8.87;72.60;101407.81;5069499;28;45333;-78
2022/03/14 01:55:32;;;;;;;;;2.25;2.00;;;;;8.93;72.79;101411.44;5069397;28;45212;-78
2022/03/14 01:57:58;;;;;;;;;2.75;2.75;;;;;8.94;72.60;101408.00;5077458;28;45401;-78
2022/03/14 02:00:23;;;;;;;;;1.00;1.00;;;;;8.89;72.18;101400.84;5076509;28;47241;-78
2022/03/14 02:02:49;;;;;;;;;4.25;1.00;;;;;8.93;72.33;101415.81;5065360;28;45544;-79
2022/03/14 02:05:16;;;;;;;;;1.00;1.00;;;;;8.76;72.40;101402.28;5066531;28;45423;-79
2022/03/14 02:07:41;;;;;;;;;2.00;2.00;;;;;8.79;72.91;101415.50;5057890;28;45308;-78
2022/03/14 02:10:08;;;;;;;;;2.75;2.75;;;;;8.68;72.92;101407.34;5058692;28;45749;-78
2022/03/14 02:12:34;;;;;;;;;2.50;2.00;;;;;8.69;73.14;101416.09;5057797;28;45288;-78
2022/03/14 02:14:59;;;;;;;;;0.00;0.00;;;;;8.64;73.18;101421.22;5069867;28;45447;-78
2022/03/14 02:17:25;;;;;;;;;1.00;1.00;;;;;8.55;73.02;101421.88;5066153;28;45441;-79
2022/03/14 02:19:52;;;;;;;;;4.00;3.25;;;;;8.53;73.74;101420.06;5066911;28;46289;-78
2022/03/14 02:22:17;;;;;;;;;1.75;1.75;;;;;8.35;74.03;101403.81;5064143;28;45306;-78
2022/03/14 02:24:45;;;;;;;;;2.00;2.00;;;;;8.42;73.35;101434.66;5067824;28;46146;-78
2022/03/14 02:27:14;;;;;;;;;4.00;1.75;;;;;8.40;73.95;101442.47;5074403;28;45324;-78
2022/03/14 02:29:41;;;;;;;;;3.00;1.00;;;;;8.37;73.71;101439.75;5076932;28;46326;-80
2022/03/14 02:32:08;;;;;;;;;3.00;3.00;;;;;8.34;74.46;101439.66;5074454;28;45345;-77
2022/03/14 02:34:34;;;;;;;;;3.00;2.00;;;;;8.32;73.94;101435.22;5070110;28;45538;-79
2022/03/14 02:37:00;;;;;;;;;3.00;3.00;;;;;8.31;74.71;101436.06;5074981;28;45433;-79
2022/03/14 02:39:25;;;;;;;;;3.00;3.00;;;;;8.18;74.19;101419.94;5076789;28;45958;-78
2022/03/14 02:41:51;;;;;;;;;3.25;3.25;;;;;8.21;74.31;101422.69;5075367;28;45509;-78
2022/03/14 02:44:16;;;;;;;;;1.50;1.00;;;;;8.23;74.50;101439.34;5076478;28;45791;-79
2022/03/14 02:46:42;;;;;;;;;3.75;1.75;;;;;8.21;74.57;101432.28;5072324;28;45466;-78
2022/03/14 02:49:09;;;;;;;;;1.50;1.50;;;;;8.21;74.92;101442.78;5068753;28;46195;-80
2022/03/14 02:51:38;;;;;;;;;3.50;3.50;;;;;8.21;75.17;101453.28;5066298;28;45231;-80
2022/03/14 02:54:04;;;;;;;;;4.25;2.00;;;;;8.14;75.72;101462.72;5066555;28;45536;-78
2022/03/14 02:56:30;;;;;;;;;4.75;2.00;;;;;8.14;75.34;101473.19;5076064;28;45467;-75
2022/03/14 02:58:55;;;;;;;;;0.00;0.00;;;;;8.11;75.22;101474.88;5066932;28;46471;-78
2022/03/14 03:01:23;;;;;;;;;2.25;2.00;;;;;8.08;75.69;101478.25;5058166;28;46069;-80
2022/03/14 03:03:50;;;;;;;;;2.00;2.00;;;;;7.94;76.12;101454.25;5070350;28;45605;-79
2022/03/14 03:06:17;;;;;;;;;3.50;2.50;;;;;8.05;76.25;101490.41;5073673;28;45299;-78
2022/03/14 03:08:44;;;;;;;;;5.00;3.00;;;;;7.87;75.86;101468.03;5073353;28;45369;-76
2022/03/14 03:11:12;;;;;;;;;2.75;2.75;;;;;7.96;76.47;101496.28;5076440;28;45344;-76
2022/03/14 03:13:42;;;;;;;;;6.75;2.75;;;;;7.95;76.77;101507.63;5071882;28;45422;-79
2022/03/14 03:16:09;;;;;;;;;4.25;3.00;;;;;7.93;76.21;101511.94;5074978;28;45370;-78
2022/03/14 03:18:35;;;;;;;;;2.25;2.25;;;;;7.81;76.41;101498.41;5054313;28;46116;-79
2022/03/14 03:21:01;;;;;;;;;5.75;3.00;;;;;7.79;77.11;101510.59;5058243;28;45440;-78
2022/03/14 03:23:27;;;;;;;;;3.00;3.00;;;;;7.85;76.29;101526.53;5091948;27;45441;-78
2022/03/14 03:25:52;;;;;;;;;7.75;4.00;;;;;7.85;77.34;101543.19;5077948;28;45268;-79
2022/03/14 03:28:18;;;;;;;;;3.00;1.50;;;;;7.88;76.45;101543.25;5055002;28;48237;-77
2022/03/14 03:30:46;;;;;;;;;5.00;2.75;;;;;7.90;76.85;101538.94;5058974;28;45496;-74
2022/03/14 03:33:12;;;;;;;;;4.00;3.25;;;;;7.87;77.07;101541.47;5076288;28;45357;-75
2022/03/14 03:35:38;;;;;;;;;1.75;1.75;;;;;7.89;77.14;101552.00;5076426;28;45611;-73
2022/03/14 03:38:03;;;;;;;;;3.50;1.00;;;;;7.83;76.37;101541.34;5067318;28;46142;-78
2022/03/14 03:40:29;;;;;;;;;6.25;4.75;;;;;7.80;76.41;101549.09;5069086;28;45441;-77
2022/03/14 03:42:55;;;;;;;;;2.75;2.75;;;;;7.76;77.01;101547.25;5072004;28;45229;-78
2022/03/14 03:45:20;;;;;;;;;5.00;4.75;;;;;7.72;77.35;101554.09;5076524;28;45367;-75
2022/03/14 03:47:46;;;;;;;;;3.00;2.00;;;;;7.62;77.11;101546.78;5075044;28;46436;-77
2022/03/14 03:50:11;;;;;;;;;3.50;3.25;;;;;7.67;77.11;101574.06;5075035;28;45482;-76
2022/03/14 03:52:37;;;;;;;;;6.50;5.75;;;;;7.60;77.75;101564.19;5069932;28;45427;-78
2022/03/14 03:55:03;;;;;;;;;7.25;4.25;;;;;7.62;77.79;101568.66;5057385;28;45513;-77
2022/03/14 03:57:30;;;;;;;;;8.00;3.50;;;;;7.58;77.81;101573.75;5063347;28;46211;-77
2022/03/14 03:59:55;;;;;;;;;2.50;2.25;;;;;7.55;78.55;101574.56;5073437;28;45289;-78
2022/03/14 04:02:20;;;;;;;;;7.75;3.00;;;;;7.52;77.74;101582.28;5069877;28;46972;-78
2022/03/14 04:04:47;;;;;;;;;4.25;2.00;;;;;7.51;77.72;101584.88;5073452;28;45377;-78
2022/03/14 04:07:19;;;;;;;;;6.75;6.50;;;;;7.49;77.54;101589.19;5070638;28;46455;-79
2022/03/14 04:09:55;;;;;;;;;5.50;2.25;;;;;7.41;77.90;101592.44;5077198;28;45233;-77
2022/03/14 04:12:25;;;;;;;;;5.00;5.00;;;;;7.43;78.59;101602.97;5071872;28;45466;-78
2022/03/14 04:14:52;;;;;;;;;6.75;5.75;;;;;7.42;77.82;101612.56;5066085;28;45554;-79
2022/03/14 04:17:18;;;;;;;;;6.50;4.00;;;;;7.40;78.30;101603.75;5071839;28;47989;-76
2022/03/14 04:19:44;;;;;;;;;5.75;2.00;;;;;7.41;77.58;101602.03;5075607;28;45457;-78
2022/03/14 04:22:10;;;;;;;;;3.50;3.00;;;;;7.39;77.68;101616.81;5071907;28;45478;-77
2022/03/14 04:24:37;;;;;;;;;4.00;3.00;;;;;7.36;77.32;101616.72;5072698;28;45441;-77
2022/03/14 04:27:03;;;;;;;;;2.50;2.50;;;;;7.32;77.81;101617.44;5074860;28;47340;-79
2022/03/14 04:29:28;;;;;;;;;9.00;5.75;;;;;7.30;77.08;101625.25;5067710;28;45604;-78
2022/03/14 04:31:54;;;;;;;;;6.25;5.00;;;;;7.23;78.24;101607.53;5074889;28;45783;-76
2022/03/14 04:34:20;;;;;;;;;3.25;1.00;;;;;7.19;76.89;101591.66;5070416;28;45616;-78
2022/03/14 04:36:47;;;;;;;;;5.00;2.00;;;;;7.33;77.48;101629.69;5075529;28;45559;-78
2022/03/14 04:39:13;;;;;;;;;4.50;2.25;;;;;7.22;77.91;101621.47;5076150;28;45966;-78
2022/03/14 04:41:38;;;;;;;;;7.50;7.50;;;;;7.31;77.42;101642.75;5078855;28;45541;-77
2022/03/14 04:44:04;;;;;;;;;2.25;2.25;;;;;7.28;77.26;101642.66;5068068;28;45387;-79
2022/03/14 04:46:30;;;;;;;;;1.50;0.75;;;;;7.24;77.65;101648.63;5062415;28;45588;-78
2022/03/14 04:48:55;;;;;;;;;3.00;3.00;;;;;7.25;77.27;101654.75;5067765;28;45443;-78
2022/03/14 04:51:21;;;;;;;;;7.25;5.00;;;;;7.15;76.97;101645.66;5076697;28;45287;-78
2022/03/14 04:53:46;;;;;;;;;5.00;5.00;;;;;7.15;77.27;101664.91;5066429;28;45486;-77
2022/03/14 04:56:12;;;;;;;;;3.50;3.50;;;;;7.13;76.87;101669.19;5073741;28;46064;-75
2022/03/14 04:58:37;;;;;;;;;3.00;3.00;;;;;7.09;77.31;101666.44;5077746;28;45397;-78
2022/03/14 05:01:02;;;;;;;;;3.00;3.00;;;;;7.05;76.94;101669.75;5071314;28;47069;-79
2022/03/14 05:03:28;;;;;;;;;6.00;5.75;;;;;6.99;77.35;101666.94;5059775;28;45364;-77
2022/03/14 05:05:53;;;;;;;;;5.25;3.00;;;;;6.89;77.13;101659.53;5063107;28;45524;-78
2022/03/14 05:08:19;;;;;;;;;12.00;8.00;;;;;6.94;78.10;101685.09;5060033;28;45352;-77
2022/03/14 05:10:45;;;;;;;;;6.00;5.00;;;;;6.86;77.57;101683.91;5080189;28;45447;-79
2022/03/14 05:13:10;;;;;;;;;6.75;6.50;;;;;6.83;78.07;101683.78;5056947;28;45537;-76
2022/03/14 05:15:38;;;;;;;;;2.75;2.75;;;;;6.77;78.88;101684.44;5070725;28;45793;-77
2022/03/14 05:18:04;;;;;;;;;7.25;3.00;;;;;6.73;78.27;101681.66;5078119;28;45222;-76
2022/03/14 05:20:29;;;;;;;;;7.25;6.00;;;;;6.72;78.22;101693.88;5077924;28;45338;-78
2022/03/14 05:22:55;;;;;;;;;5.75;5.75;;;;;6.67;78.40;101699.75;5078336;28;45495;-79
2022/03/14 05:25:22;;;;;;;;;8.00;5.75;;;;;6.67;78.18;101707.59;5074887;28;46080;-76
2022/03/14 05:27:48;;;;;;;;;5.25;5.25;;;;;6.58;79.08;101710.75;5067588;28;45345;-78
2022/03/14 05:30:14;;;;;;;;;7.75;6.50;;;;;6.61;79.08;101709.97;5055207;28;45452;-77
2022/03/14 05:32:41;;;;;;;;;9.50;6.00;;;;;6.55;78.98;101700.19;5076385;28;45242;-78
2022/03/14 05:35:15;;;;;;;;;6.25;6.25;;;;;6.57;79.34;101706.34;5077367;28;46238;-79
2022/03/14 05:37:41;;;;;;;;;2.25;2.25;;;;;6.49;78.80;101708.66;5073233;28;45728;-75
2022/03/14 05:40:08;;;;;;;;;5.00;3.50;;;;;6.51;79.73;101712.25;5071915;28;45475;-79
2022/03/14 05:42:33;;;;;;;;;0.25;0.25;;;;;6.48;79.72;101716.47;5059700;28;45441;-76
2022/03/14 05:44:59;;;;;;;;;6.25;6.00;;;;;6.57;79.49;101717.72;5079434;28;45156;-78
2022/03/14 05:47:25;;;;;;;;;5.00;5.00;;;;;6.49;79.14;101711.28;5074949;28;45221;-80
2022/03/14 05:49:50;;;;;;;;;8.50;6.75;;;;;6.57;79.39;101727.28;5058309;28;45226;-76
2022/03/14 05:52:18;;;;;;;;;10.25;7.75;;;;;6.56;79.41;101736.88;5078238;28;45354;-77
2022/03/14 05:54:43;;;;;;;;;5.25;5.25;;;;;6.56;79.74;101734.25;5071820;28;46471;-77
2022/03/14 05:57:08;;;;;;;;;5.00;5.00;;;;;6.44;79.37;101723.31;5075275;28;45562;-78
2022/03/14 05:59:34;;;;;;;;;7.50;7.50;;;;;6.43;79.65;101724.16;5059704;28;45350;-78
2022/03/14 06:01:59;;;;;;;;;6.00;5.50;;;;;6.54;79.38;101741.16;5076789;28;45460;-79
2022/03/14 06:04:25;;;;;;;;;7.75;6.00;;;;;6.55;79.00;101752.53;5072789;28;47038;-78
2022/03/14 06:06:50;;;;;;;;;7.00;6.00;;;;;6.54;78.86;101761.22;5079060;28;45422;-77
2022/03/14 06:09:15;;;;;;;;;7.00;6.50;;;;;6.56;79.25;101756.94;5075942;28;45349;-78
2022/03/14 06:11:42;;;;;;;;;6.75;6.75;;;;;6.57;78.78;101767.47;5078635;28;45432;-78
2022/03/14 06:14:08;;;;;;;;;7.75;6.00;;;;;6.59;79.12;101764.88;5075395;28;46370;-79
2022/03/14 06:16:34;;;;;;;;;6.00;1.50;;;;;6.56;79.30;101763.06;5067275;28;45286;-79
2022/03/14 06:18:59;;;;;;;;;9.25;6.75;;;;;6.61;78.80;101764.94;5068189;28;45219;-77
2022/03/14 06:21:25;;;;;;;;;10.50;7.50;;;;;6.64;79.30;101770.34;5076082;28;45187;-79
2022/03/14 06:23:50;;;;;;;;;8.25;5.00;;;;;6.66;78.40;101776.50;5063158;28;46022;-79
2022/03/14 06:26:16;;;;;;;;;8.00;7.00;;;;;6.48;78.47;101740.03;5058473;28;45295;-79
2022/03/14 06:28:42;;;;;;;;;9.25;7.00;;;;;6.69;78.88;101769.66;5061070;28;45533;-80
2022/03/14 06:31:09;;;;;;;;;10.25;7.00;;;;;6.77;78.41;101783.06;5064089;28;45520;-80
2022/03/14 06:33:35;;;;;;;;;6.75;6.75;;;;;6.80;78.20;101785.81;5057205;28;46391;-79
2022/03/14 06:36:01;;;;;;;;;13.75;7.75;;;;;6.82;78.18;101792.91;5072699;28;45430;-79
2022/03/14 06:38:26;;;;;;;;;6.50;5.75;;;;;6.84;77.48;101800.81;5076633;28;45421;-80
2022/03/14 06:40:54;;;;;;;;;8.75;6.75;;;;;6.90;77.53;101813.28;5078860;28;45690;-80
2022/03/14 06:43:21;;;;;;;;;6.75;5.75;;;;;6.96;77.81;101809.13;5057098;27;45426;-83
2022/03/14 06:45:47;;;;;;;;;10.50;6.25;;;;;6.86;77.31;101807.88;5060190;28;45476;-81
2022/03/14 06:48:13;;;;;;;;;10.25;6.25;;;;;6.98;77.59;101827.53;5079070;28;45419;-79
2022/03/14 06:50:38;;;;;;;;;10.75;10.75;;;;;7.04;76.70;101831.28;5079231;28;45362;-78
2022/03/14 06:53:04;;;;;;;;;8.75;8.75;;;;;7.13;77.68;101843.88;5078574;28;46141;-77
2022/03/14 06:55:29;;;;;;;;;6.25;6.00;;;;;7.13;76.49;101842.13;5060369;28;45411;-80
2022/03/14 06:57:55;;;;;;;;;16.25;10.25;;;;;7.23;76.63;101855.59;5060743;28;45789;-80
2022/03/14 07:00:22;;;;;;;;;7.75;7.00;;;;;7.17;76.19;101831.78;5067214;28;45616;-79
2022/03/14 07:02:48;;;;;;;;;8.50;8.00;;;;;7.34;76.12;101856.91;5066939;28;45256;-80
2022/03/14 07:05:20;;;;;;;;;9.25;7.00;;;;;7.41;76.01;101856.31;5040044;28;45505;-80
2022/03/14 07:07:46;;;;;;;;;10.00;7.50;;;;;7.33;76.14;101839.38;5056504;28;45445;-77
2022/03/14 07:10:13;;;;;;;;;11.25;6.50;;;;;7.46;75.79;101862.63;5056028;28;45326;-78
2022/03/14 07:12:44;;;;;;;;;11.00;10.50;;;;;7.40;76.22;101851.91;5057897;28;45532;-78
2022/03/14 07:15:10;;;;;;;;;5.75;5.75;;;;;7.58;75.07;101880.53;5056959;28;45616;-77
2022/03/14 07:17:36;;;;;;;;;11.25;8.50;;;;;7.62;75.47;101885.94;5055812;28;45456;-77
2022/03/14 07:20:02;;;;;;;;;10.75;7.25;;;;;7.45;74.89;101857.34;5055960;28;45433;-77
2022/03/14 07:22:28;;;;;;;;;10.50;8.00;;;;;7.53;74.67;101882.09;5053722;28;45465;-77
2022/03/14 07:24:53;;;;;;;;;5.25;5.25;;;;;7.46;74.62;101870.50;5055995;28;45465;-77
2022/03/14 07:27:19;;;;;;;;;8.25;8.00;;;;;7.52;75.29;101882.91;5058284;28;45514;-79
2022/03/14 07:29:44;;;;;;;;;15.50;14.00;;;;;7.59;75.15;101888.47;5059406;28;45436;-74
2022/03/14 07:32:10;;;;;;;;;13.25;11.75;;;;;7.75;75.20;101895.19;5055909;28;45423;-79
2022/03/14 07:34:36;;;;;;;;;11.25;11.25;;;;;7.83;74.83;101899.00;5072390;27;45683;-78
2022/03/14 07:37:02;;;;;;;;;8.00;7.75;;;;;7.92;73.93;101901.97;5056389;28;45356;-77
2022/03/14 07:39:27;;;;;;;;;13.00;9.25;;;;;8.09;73.21;101917.41;5057499;28;45619;-78
2022/03/14 07:41:54;;;;;;;;;13.00;13.00;;;;;8.07;72.95;101896.34;5057305;28;46989;-81
2022/03/14 07:44:20;;;;;;;;;12.00;8.50;;;;;8.23;72.22;101924.06;5054808;28;45687;-80
2022/03/14 07:46:45;;;;;;;;;13.25;13.00;;;;;8.32;72.39;101919.13;5055304;28;45573;-77
2022/03/14 07:49:12;;;;;;;;;11.75;11.75;;;;;8.15;71.92;101894.00;5055978;28;45439;-78
2022/03/14 07:51:38;;;;;;;;;13.50;12.00;;;;;8.41;72.16;101943.13;5055591;28;46018;-77
2022/03/14 07:54:03;;;;;;;;;10.25;8.75;;;;;8.39;71.31;101949.16;5056739;28;45422;-78
2022/03/14 07:56:28;;;;;;;;;15.25;12.00;;;;;8.41;71.75;101960.63;5056290;28;45620;-77
2022/03/14 07:58:54;;;;;;;;;14.50;13.25;;;;;8.26;72.16;101953.03;5055145;28;45518;-79
2022/03/14 08:01:19;;;;;;;;;17.00;12.00;;;;;8.32;71.78;101963.75;5053914;28;45433;-79
2022/03/14 08:03:45;;;;;;;;;15.75;11.75;;;;;8.37;71.78;101971.81;5056636;28;45429;-80
2022/03/14 08:06:14;;;;;;;;;14.75;12.50;;;;;8.23;72.03;101953.81;5056328;28;45581;-77
2022/03/14 08:08:40;;;;;;;;;12.25;12.25;;;;;8.33;72.49;101967.28;5058118;28;45935;-78
2022/03/14 08:11:05;;;;;;;;;15.50;14.00;;;;;8.20;71.71;101939.72;5059327;28;45485;-78
2022/03/14 08:13:31;;;;;;;;;12.50;12.00;;;;;8.38;72.04;101960.50;5060722;28;46043;-78
2022/03/14 08:15:57;;;;;;;;;16.75;16.75;;;;;8.36;72.11;101957.81;5060402;28;45575;-78
2022/03/14 08:18:22;;;;;;;;;12.25;10.00;;;;;8.34;71.56;101962.09;5062225;28;45611;-76
2022/03/14 08:20:53;;;;;;;;;14.25;13.25;;;;;8.34;71.73;101962.09;5062391;28;46564;-79
2022/03/14 08:23:19;;;;;;;;;14.00;14.00;;;;;8.36;71.69;101973.56;5056305;28;45823;-79
2022/03/14 08:25:46;;;;;;;;;10.00;9.00;;;;;8.39;71.66;101968.44;5055291;28;45659;-80
2022/03/14 08:28:11;;;;;;;;;14.50;14.25;;;;;8.37;71.81;101956.06;5065251;28;45489;-84
2022/03/14 08:30:38;;;;;;;;;22.50;15.00;;;;;8.56;71.51;101971.63;5060604;28;46304;-86
2022/03/14 08:33:03;;;;;;;;;17.50;15.00;;;;;8.69;70.77;101994.00;5055649;28;45427;-79
2022/03/14 08:35:29;;;;;;;;;18.75;14.75;;;;;8.72;70.65;101989.72;5057858;28;45403;-81
2022/03/14 08:37:56;;;;;;;;;12.00;12.00;;;;;8.82;70.85;101997.09;5058995;28;45570;-79
2022/03/14 08:40:24;;;;;;;;;13.25;13.25;;;;;8.91;70.69;102000.88;5056445;28;47382;-79
2022/03/14 08:42:52;;;;;;;;;12.50;12.50;;;;;9.04;70.34;101998.75;5058979;28;45504;-77
2022/03/14 08:45:18;;;;;;;;;18.25;16.75;;;;;9.15;69.95;102009.59;5057731;28;45418;-75
2022/03/14 08:47:43;;;;;;;;;14.25;13.25;;;;;9.22;69.60;102006.34;5058304;28;45567;-78
2022/03/14 08:50:10;;;;;;;;;14.50;13.00;;;;;9.39;69.31;102013.03;5059401;28;47347;-77
2022/03/14 08:52:36;;;;;;;;;11.75;11.75;;;;;9.38;68.65;102002.47;5060318;28;45445;-78
2022/03/14 08:55:02;;;;;;;;;14.00;12.00;;;;;9.50;68.45;102023.91;5056717;28;45471;-81
2022/03/14 08:57:28;;;;;;;;;15.25;14.75;;;;;9.56;68.72;102007.41;5042242;28;45577;-82
2022/03/14 08:59:54;;;;;;;;;17.00;14.50;;;;;9.68;68.22;101986.78;5058404;28;45394;-85
2022/03/14 09:02:20;;;;;;;;;11.50;11.50;;;;;9.85;66.50;101977.63;5057158;28;45444;-80
2022/03/14 09:04:45;;;;;;;;;16.75;14.00;;;;;12.63;62.18;102016.28;5077247;27;45472;-84
2022/03/14 09:07:11;;;;;;;;;16.50;14.25;;;;;13.82;57.14;102004.22;5060444;28;45382;-78
2022/03/14 09:09:37;;;;;;;;;16.25;12.50;;;;;13.69;56.61;101980.22;5058485;28;46307;-81
2022/03/14 09:12:03;;;;;;;;;15.00;13.75;;;;;14.28;55.70;102016.31;5058238;28;46001;-84
2022/03/14 09:14:32;;;;;;;;;17.25;14.75;;;;;14.61;54.73;102018.53;5062162;28;45374;-87
2022/03/14 09:16:58;;;;;;;;;14.00;12.00;;;;;15.15;53.43;101979.25;5065164;28;45366;-83
2022/03/14 09:19:25;;;;;;;;;10.75;10.75;;;;;18.55;48.85;102026.97;5059813;28;45454;-83
2022/03/14 09:21:51;;;;;;;;;16.00;13.50;;;;;22.73;38.04;102002.56;5060067;28;45900;-80
2022/03/14 09:24:16;;;;;;;;;13.00;10.50;;;;;25.68;33.36;102007.53;5059085;28;45622;-80
2022/03/14 09:26:42;;;;;;;;;10.75;10.00;;;;;28.04;30.15;102024.28;5056999;28;45474;-82
2022/03/14 09:29:08;;;;;;;;;13.00;13.00;;;;;29.56;27.00;102016.03;5059720;28;45839;-87
2022/03/14 09:31:33;;;;;;;;;11.33;8.67;;;;;30.45;25.37;102019.44;5061017;28;45465;-84
2022/03/14 09:34:00;;;;;;;;;17.33;13.33;;;;;30.29;25.05;102017.56;5060327;28;45494;-81
2022/03/14 09:36:25;;;;;;;;;12.00;11.00;;;;;28.61;26.58;102011.69;5058261;28;45370;-82
2022/03/14 09:38:51;;;;;;;;;21.00;16.33;;;;;30.27;25.31;102027.66;5071169;28;46174;-82
2022/03/14 09:41:18;;;;;;;;;7.67;7.00;;;;;31.27;24.52;102042.00;5061252;28;45424;-83
2022/03/14 09:43:49;;;;;;;;;15.00;11.67;;;;;30.87;23.32;102046.09;5060443;28;45362;-82
2022/03/14 09:46:15;;;;;;;;;8.75;8.50;;;;;30.53;23.12;102034.38;5059965;28;45431;-82
2022/03/14 09:48:49;;;;;;;;;11.00;8.25;;;;;28.99;25.62;102031.56;5056898;28;48235;-82
2022/03/14 09:51:17;;;;;;;;;17.67;14.33;;;;;30.21;24.25;101997.19;5059656;28;45402;-86
2022/03/14 09:53:44;;;;;;;;;10.75;9.50;;;;;32.52;22.48;102037.00;5058375;28;45828;-85
2022/03/14 09:56:09;;;;;;;;;11.00;11.00;;;;;33.98;20.40;102034.47;5054176;28;45402;-84
2022/03/14 09:58:38;;;;;;;;;13.50;12.50;;;;;35.24;19.04;102042.56;5059669;28;46783;-84
2022/03/14 10:01:05;;;;;;;;;9.80;9.80;;;;;35.00;19.21;102041.72;5060825;28;45744;-83
2022/03/14 10:03:31;;;;;;;;;12.40;12.20;;;;;35.39;18.96;102033.22;5062451;28;45364;-80
2022/03/14 10:06:00;;;;;;;;;9.25;9.25;;;;;36.82;18.28;102037.28;5064992;28;45209;-89
2022/03/14 10:08:25;;;;;;;;;9.80;9.80;;;;;36.44;17.76;102007.53;5076686;28;45359;-83
2022/03/14 10:10:51;;;;;;;;;9.25;9.25;;;;;37.46;16.35;102021.91;5077987;28;44768;-86
2022/03/14 10:13:16;;;;;;;;;10.50;9.00;;;;;38.35;16.42;102051.66;5072417;28;45484;-84
2022/03/14 10:15:42;;;;;;;;;12.25;9.25;;;;;38.62;15.59;102040.00;5081224;28;44797;-88
2022/03/14 10:18:15;;;;;;;;;10.25;9.00;;;;;38.77;16.13;102037.78;5076588;28;45479;-85
2022/03/14 10:21:05;;;;;;;;;9.80;7.60;;;;;39.26;14.88;102039.59;5076852;28;44838;-89
2022/03/14 10:23:33;;;;;;;;;12.00;12.00;;;;;39.81;14.11;102042.66;5063625;28;45355;-84
2022/03/14 10:26:00;;;;;;;;;9.60;9.00;;;;;39.42;15.14;102036.28;5061562;28;45583;-88
2022/03/14 10:28:35;;;;;;;;;10.80;8.80;;;;;39.89;14.95;102044.69;5062316;28;45920;-92
2022/03/14 10:31:02;;;;;;;;;9.20;8.20;;;;;40.06;14.23;102048.59;5055311;28;45457;-84
2022/03/14 10:33:30;;;;;;;;;10.40;8.00;;;;;40.05;14.63;102039.44;5057850;28;45520;-80
2022/03/14 10:35:57;;;;;;;;;11.00;10.20;;;;;40.36;15.36;102059.38;5058868;28;45442;-86
2022/03/14 10:38:24;;;;;;;;;8.40;8.40;;;;;39.85;13.73;102018.41;5067317;28;45363;-89
2022/03/14 10:40:51;;;;;;;;;7.00;6.80;;;;;39.29;15.34;102055.88;5061630;28;45547;-86
2022/03/14 10:43:28;;;;;;;;;6.80;6.80;;;;;39.29;14.90;102044.84;5064939;28;45450;-89
2022/03/14 10:45:56;;;;;;;;;8.40;8.00;;;;;39.43;14.21;102056.47;5055585;28;45516;-83
2022/03/14 10:48:41;;;;;;;;;0.00;0.00;;;;;38.91;14.22;102044.78;5066214;28;46341;-78
2022/03/14 10:51:08;;;;;;;;;8.60;4.40;;;;;39.14;14.25;102027.00;5070978;28;45245;-88
2022/03/14 10:53:39;;;;;;;;;5.20;4.60;;;;;39.23;13.46;102030.78;5068837;28;45231;-86
2022/03/14 10:56:05;;;;;;;;;9.40;6.80;;;;;38.76;14.04;102053.44;5068290;28;45182;-92
2022/03/14 10:58:34;;;;;;;;;7.75;7.50;;;;;38.28;14.99;102041.34;5065014;28;47301;-85
2022/03/14 11:01:03;;;;;;;;;9.00;8.80;;;;;37.23;15.21;102022.00;5066602;28;45519;-84
2022/03/14 11:03:33;;;;;;;;;6.00;5.40;;;;;35.37;16.56;102026.09;5059569;28;46852;-86
2022/03/14 11:06:01;;;;;;;;;6.80;6.60;;;;;35.32;16.36;101989.94;5056184;28;45615;-88
2022/03/14 11:08:28;;;;;;;;;8.40;6.80;;;;;36.11;16.28;102032.16;5058744;28;46505;-87
2022/03/14 11:10:56;;;;;;;;;2.20;1.00;;;;;36.35;16.50;102037.56;5057718;28;45385;-90
2022/03/14 11:13:31;;;;;;;;;5.40;5.40;;;;;32.19;19.05;102042.72;5052081;28;45243;-87
2022/03/14 11:16:03;;;;;;;;;4.40;3.00;;;;;29.17;22.12;101989.06;5067909;28;44848;-90
2022/03/14 11:18:29;;;;;;;;;6.00;6.00;;;;;27.36;23.44;102047.06;5065921;28;45492;-76
2022/03/14 11:20:58;;;;;;;;;6.40;5.20;;;;;25.56;25.67;102039.41;5042678;28;45505;-79
2022/03/14 11:23:25;;;;;;;;;4.80;4.00;;;;;24.35;27.61;102041.47;5064501;28;45254;-92